createdAt,value
2023-04-15T00:04:51.464Z,1.37
2023-04-15T00:09:55.242Z,1.36
2023-04-15T00:14:57.169Z,1.37
2023-04-15T00:19:59.964Z,1.34
2023-04-15T00:25:02.153Z,1.28
2023-04-15T00:30:04.219Z,1.16
2023-04-15T00:35:06.196Z,1.12
2023-04-15T00:40:17.246Z,1.10
2023-04-15T00:45:19.261Z,1.11
2023-04-15T00:50:20.814Z,1.11
2023-04-15T00:55:23.107Z,1.21
2023-04-15T01:00:24.887Z,1.36
2023-04-15T01:05:27.105Z,1.39
2023-04-15T01:10:28.719Z,1.41
2023-04-15T01:15:31.352Z,1.39
2023-04-15T01:20:34.553Z,1.30
2023-04-15T01:25:37.112Z,1.37
2023-04-15T01:30:38.697Z,1.50
2023-04-15T01:35:40.309Z,1.47
2023-04-15T01:40:41.817Z,1.35
2023-04-15T01:45:43.355Z,1.30
2023-04-15T01:50:45.775Z,1.23
2023-04-15T01:55:47.439Z,1.12
2023-04-15T02:00:49.716Z,1.11
2023-04-15T02:05:51.445Z,1.08
2023-04-15T02:10:53.027Z,0.99
2023-04-15T02:15:55.684Z,0.93
2023-04-15T02:20:58.688Z,0.89
2023-04-15T02:26:00.477Z,0.85
2023-04-15T02:31:09.596Z,0.79
2023-04-15T02:36:12.452Z,0.74
2023-04-15T02:41:14.340Z,0.59
2023-04-15T02:46:16.906Z,0.54
2023-04-15T02:51:21.434Z,0.49
2023-04-15T02:56:23.603Z,0.39
2023-04-15T03:01:26.178Z,0.35
2023-04-15T03:06:27.784Z,0.29
2023-04-15T03:11:29.839Z,0.19
2023-04-15T03:16:31.543Z,0.13
2023-04-15T03:21:33.474Z,0.12
2023-04-15T03:26:35.154Z,0.08
2023-04-15T03:31:43.611Z,-0.03
2023-04-15T03:36:46.869Z,-0.03
2023-04-15T03:41:48.428Z,-0.09
2023-04-15T03:46:50.146Z,-0.14
2023-04-15T03:51:54.300Z,-0.28
2023-04-15T03:56:56.832Z,-0.31
2023-04-15T04:01:58.597Z,-0.39
2023-04-15T04:07:00.166Z,-0.49
2023-04-15T04:12:02.669Z,-0.60
2023-04-15T04:17:04.320Z,-0.67
2023-04-15T04:22:06.494Z,-0.63
2023-04-15T04:27:08.130Z,-0.55
2023-04-15T04:32:09.972Z,-0.56
2023-04-15T04:37:11.883Z,-0.47
2023-04-15T04:42:13.423Z,-0.59
2023-04-15T04:47:14.997Z,-0.52
2023-04-15T04:52:16.669Z,-0.51
2023-04-15T04:57:18.236Z,-0.44
2023-04-15T05:02:19.872Z,-0.33
2023-04-15T05:07:22.165Z,-0.17
2023-04-15T05:12:23.762Z,-0.07
2023-04-15T05:17:25.305Z,0.10
2023-04-15T05:22:26.959Z,0.34
2023-04-15T05:27:28.508Z,0.67
2023-04-15T05:32:30.045Z,1.04
2023-04-15T05:37:31.600Z,1.32
2023-04-15T05:42:33.233Z,1.68
2023-04-15T05:47:38.336Z,2.05
2023-04-15T05:52:39.869Z,2.50
2023-04-15T05:57:41.461Z,3.05
2023-04-15T06:02:43.447Z,3.53
2023-04-15T06:07:47.252Z,3.96
2023-04-15T06:12:50.007Z,4.33
2023-04-15T06:17:51.645Z,4.84
2023-04-15T06:22:53.420Z,5.32
2023-04-15T06:27:54.937Z,5.75
2023-04-15T06:32:56.563Z,6.30
2023-04-15T06:37:58.100Z,6.84
2023-04-15T06:42:59.677Z,7.12
2023-04-15T06:48:01.477Z,7.55
2023-04-15T06:53:03.150Z,7.83
2023-04-15T06:58:04.687Z,7.88
2023-04-15T07:03:06.317Z,7.92
2023-04-15T07:08:07.893Z,8.00
2023-04-15T07:13:09.480Z,8.27
2023-04-15T07:18:11.245Z,8.45
2023-04-15T07:23:12.758Z,8.68
2023-04-15T07:28:14.265Z,8.85
2023-04-15T07:33:15.885Z,8.90
2023-04-15T07:38:17.516Z,8.93
2023-04-15T07:43:20.672Z,9.07
2023-04-15T07:48:22.211Z,9.23
2023-04-15T07:53:24.024Z,9.53
2023-04-15T07:58:25.761Z,9.71
2023-04-15T08:03:27.703Z,9.76
2023-04-15T08:08:29.355Z,9.86
2023-04-15T08:13:31.062Z,9.96
2023-04-15T08:18:32.571Z,10.16
2023-04-15T08:23:34.645Z,10.64
2023-04-15T08:28:38.559Z,11.32
2023-04-15T08:33:40.124Z,11.94
2023-04-15T08:38:41.849Z,12.19
2023-04-15T08:43:54.825Z,12.74
2023-04-15T08:48:57.678Z,13.05
2023-04-15T08:54:00.148Z,13.42
2023-04-15T08:59:02.543Z,13.61
2023-04-15T09:04:08.165Z,13.87
2023-04-15T09:09:09.921Z,14.02
2023-04-15T09:14:11.973Z,14.65
2023-04-15T09:19:24.198Z,15.28
2023-04-15T09:24:33.631Z,15.49
2023-04-15T09:29:35.279Z,15.84
2023-04-15T09:34:37.768Z,16.15
2023-04-15T09:39:50.550Z,16.65
2023-04-15T09:44:55.434Z,16.81
2023-04-15T09:49:58.480Z,17.14
2023-04-15T09:55:00.960Z,17.52
2023-04-15T10:00:04.332Z,17.75
2023-04-15T10:05:11.298Z,17.11
2023-04-15T10:10:13.544Z,16.71
2023-04-15T10:15:17.523Z,16.91
2023-04-15T10:20:19.760Z,17.06
2023-04-15T10:25:22.120Z,16.81
2023-04-15T10:30:26.614Z,16.33
2023-04-15T10:35:30.726Z,16.46
2023-04-15T10:40:33.478Z,16.09
2023-04-15T10:45:37.208Z,16.22
2023-04-15T10:50:39.456Z,16.63
2023-04-15T10:55:41.051Z,15.64
2023-04-15T11:00:52.386Z,15.47
2023-04-15T11:05:54.245Z,15.37
2023-04-15T11:10:55.881Z,15.41
2023-04-15T11:15:58.579Z,15.31
2023-04-15T11:21:08.356Z,15.51
2023-04-15T11:26:12.212Z,15.20
2023-04-15T11:31:16.397Z,15.27
2023-04-15T11:36:18.045Z,15.07
2023-04-15T11:41:23.469Z,15.11
2023-04-15T11:46:31.951Z,15.26
2023-04-15T11:51:35.322Z,15.13
2023-04-15T11:56:36.854Z,15.21
2023-04-15T12:01:46.753Z,15.50
2023-04-15T12:06:48.913Z,15.45
2023-04-15T12:11:53.033Z,15.28
2023-04-15T12:16:58.640Z,15.16
2023-04-15T12:22:11.850Z,15.00
2023-04-15T12:27:14.924Z,15.05
2023-04-15T12:32:19.767Z,14.90
2023-04-15T12:37:21.715Z,14.93
2023-04-15T12:42:23.227Z,14.80
2023-04-15T12:47:24.799Z,14.82
2023-04-15T12:52:26.363Z,15.11
2023-04-15T12:57:27.959Z,15.16
2023-04-15T13:02:29.561Z,15.63
2023-04-15T13:07:31.578Z,15.85
2023-04-15T13:12:36.406Z,15.82
2023-04-15T13:17:38.582Z,15.87
2023-04-15T13:22:40.595Z,15.72
2023-04-15T13:27:42.613Z,15.43
2023-04-15T13:32:44.333Z,14.99
2023-04-15T13:37:46.101Z,14.75
2023-04-15T13:42:47.603Z,14.52
2023-04-15T13:47:49.214Z,14.50
2023-04-15T13:52:50.858Z,14.55
2023-04-15T13:57:52.506Z,14.54
2023-04-15T14:02:54.153Z,14.38
2023-04-15T14:07:55.903Z,14.06
2023-04-15T14:12:57.451Z,13.76
2023-04-15T14:17:59.061Z,13.43
2023-04-15T14:23:00.862Z,13.12
2023-04-15T14:28:03.317Z,13.02
2023-04-15T14:33:04.984Z,12.96
2023-04-15T14:38:10.410Z,12.89
2023-04-15T14:43:11.985Z,12.92
2023-04-15T14:48:13.687Z,12.94
2023-04-15T14:53:15.376Z,12.85
2023-04-15T14:58:16.885Z,12.84
2023-04-15T15:03:18.724Z,12.85
2023-04-15T15:08:20.831Z,12.87
2023-04-15T15:13:22.398Z,12.89
2023-04-15T15:18:25.546Z,13.00
2023-04-15T15:23:27.238Z,13.14
2023-04-15T15:28:28.779Z,13.29
2023-04-15T15:33:30.483Z,13.21
2023-04-15T15:38:33.796Z,12.98
2023-04-15T15:43:35.536Z,12.85
2023-04-15T15:48:37.123Z,12.78
2023-04-15T15:53:38.622Z,12.67
2023-04-15T15:58:40.235Z,12.58
2023-04-15T16:03:41.956Z,12.54
2023-04-15T16:08:43.633Z,12.50
2023-04-15T16:13:45.147Z,12.41
2023-04-15T16:18:46.646Z,12.26
2023-04-15T16:23:48.155Z,12.06
2023-04-15T16:28:49.821Z,11.76
2023-04-15T16:33:51.333Z,11.43
2023-04-15T16:38:53.231Z,11.19
2023-04-15T16:43:56.749Z,11.00
2023-04-15T16:48:58.368Z,10.74
2023-04-15T16:53:59.923Z,10.59
2023-04-15T16:59:01.418Z,10.04
2023-04-15T17:04:03.436Z,9.50
2023-04-15T17:09:05.491Z,9.04
2023-04-15T17:14:07.601Z,8.65
2023-04-15T17:19:09.127Z,8.38
2023-04-15T17:24:10.960Z,8.28
2023-04-15T17:29:13.374Z,8.22
2023-04-15T17:34:16.003Z,7.97
2023-04-15T17:39:17.730Z,7.78
2023-04-15T17:44:19.360Z,7.62
2023-04-15T17:49:20.908Z,7.53
2023-04-15T17:54:22.667Z,7.42
2023-04-15T17:59:27.630Z,7.32
2023-04-15T18:04:29.267Z,7.28
2023-04-15T18:09:31.223Z,7.28
2023-04-15T18:14:35.032Z,7.20
2023-04-15T18:19:36.764Z,7.17
2023-04-15T18:24:38.580Z,7.21
2023-04-15T18:29:40.170Z,7.11
2023-04-15T18:34:42.818Z,7.05
2023-04-15T18:39:44.399Z,7.04
2023-04-15T18:44:45.907Z,7.05
2023-04-15T18:49:47.510Z,7.02
2023-04-15T18:54:49.069Z,7.04
2023-04-15T18:59:50.618Z,7.02
2023-04-15T19:04:52.158Z,7.05
2023-04-15T19:09:53.733Z,7.09
2023-04-15T19:14:55.461Z,7.19
2023-04-15T19:19:57.087Z,7.37
2023-04-15T19:24:58.705Z,7.45
2023-04-15T19:30:00.214Z,7.54
2023-04-15T19:35:01.957Z,7.67
2023-04-15T19:40:03.878Z,7.74
2023-04-15T19:45:05.958Z,7.73
2023-04-15T19:50:07.866Z,7.73
2023-04-15T19:55:09.473Z,7.80
2023-04-15T20:00:11.601Z,7.80
2023-04-15T20:05:13.870Z,7.85
2023-04-15T20:10:15.457Z,7.81
2023-04-15T20:15:17.257Z,7.83
2023-04-15T20:20:18.913Z,7.89
2023-04-15T20:25:20.475Z,7.95
2023-04-15T20:30:22.107Z,7.89
2023-04-15T20:35:24.983Z,7.86
2023-04-15T20:40:26.614Z,7.86
2023-04-15T20:45:28.160Z,7.83
2023-04-15T20:50:29.814Z,7.80
2023-04-15T20:55:31.303Z,7.79
2023-04-15T21:00:33.298Z,7.80
2023-04-15T21:05:34.864Z,7.82
2023-04-15T21:10:36.819Z,7.82
2023-04-15T21:15:39.215Z,7.82
2023-04-15T21:20:40.703Z,7.85
2023-04-15T21:25:43.344Z,7.84
2023-04-15T21:30:45.845Z,7.83
2023-04-15T21:35:47.513Z,7.81
2023-04-15T21:40:52.367Z,7.81
2023-04-15T21:46:23.174Z,7.83
2023-04-15T21:51:15.758Z,7.89
2023-04-15T21:56:17.316Z,7.88
2023-04-15T22:01:18.889Z,7.84
2023-04-15T22:06:20.506Z,7.84
2023-04-15T22:11:28.754Z,7.84
2023-04-15T22:16:30.542Z,7.86
2023-04-15T22:21:32.437Z,7.85
2023-04-15T22:26:33.998Z,7.87
2023-04-15T22:31:35.806Z,7.85
2023-04-15T22:36:37.342Z,7.84
2023-04-15T22:41:38.914Z,7.87
2023-04-15T22:46:40.718Z,7.86
2023-04-15T22:51:42.309Z,7.86
2023-04-15T22:56:43.884Z,7.82
2023-04-15T23:01:45.580Z,7.81
2023-04-15T23:06:47.497Z,7.85
2023-04-15T23:11:49.413Z,7.87
2023-04-15T23:16:51.062Z,7.83
2023-04-15T23:21:54.088Z,7.77
2023-04-15T23:26:57.196Z,7.71
2023-04-15T23:31:59.128Z,7.72
2023-04-15T23:37:00.930Z,7.71
2023-04-15T23:42:03.404Z,7.71
2023-04-15T23:47:05.202Z,7.69
2023-04-15T23:52:07.237Z,7.68
2023-04-15T23:57:08.799Z,7.71
